sensor_id;sensor_type;location;lat;lon;timestamp;temperature;humidity
52471;DHT22;38382;53.160;7.026;2022-12-07T00:01:38;2.90;99.90
52471;DHT22;38382;53.160;7.026;2022-12-07T00:04:05;3.60;99.90
52471;DHT22;38382;53.160;7.026;2022-12-07T00:06:34;2.90;99.90
52471;DHT22;38382;53.160;7.026;2022-12-07T00:09:00;2.90;99.90
52471;DHT22;38382;53.160;7.026;2022-12-07T00:11:26;2.90;99.90
52471;DHT22;38382;53.160;7.026;2022-12-07T00:14:01;3.00;99.90
52471;DHT22;38382;53.160;7.026;2022-12-07T00:16:30;3.00;99.90
52471;DHT22;38382;53.160;7.026;2022-12-07T00:18:56;3.30;99.90
52471;DHT22;38382;53.160;7.026;2022-12-07T00:21:25;3.10;99.90
52471;DHT22;38382;53.160;7.026;2022-12-07T00:23:52;3.10;99.90
52471;DHT22;38382;53.160;7.026;2022-12-07T00:28:57;3.60;99.90
52471;DHT22;38382;53.160;7.026;2022-12-07T00:31:25;3.20;99.90
52471;DHT22;38382;53.160;7.026;2022-12-07T00:33:51;3.70;99.90
52471;DHT22;38382;53.160;7.026;2022-12-07T00:36:20;3.80;99.90
52471;DHT22;38382;53.160;7.026;2022-12-07T00:38:46;4.10;99.90
52471;DHT22;38382;53.160;7.026;2022-12-07T00:41:16;3.20;99.90
52471;DHT22;38382;53.160;7.026;2022-12-07T00:43:43;3.30;99.90
52471;DHT22;38382;53.160;7.026;2022-12-07T00:46:10;3.30;99.90
52471;DHT22;38382;53.160;7.026;2022-12-07T00:48:36;3.20;99.90
52471;DHT22;38382;53.160;7.026;2022-12-07T00:51:02;4.30;99.90
52471;DHT22;38382;53.160;7.026;2022-12-07T00:53:28;3.30;99.90
52471;DHT22;38382;53.160;7.026;2022-12-07T00:55:54;3.40;99.90
52471;DHT22;38382;53.160;7.026;2022-12-07T00:58:22;3.50;99.90
52471;DHT22;38382;53.160;7.026;2022-12-07T01:00:48;3.50;99.90
52471;DHT22;38382;53.160;7.026;2022-12-07T01:03:15;3.60;99.90
52471;DHT22;38382;53.160;7.026;2022-12-07T01:05:49;3.90;99.90
52471;DHT22;38382;53.160;7.026;2022-12-07T01:08:15;3.70;99.90
52471;DHT22;38382;53.160;7.026;2022-12-07T01:10:41;4.10;99.90
52471;DHT22;38382;53.160;7.026;2022-12-07T01:13:07;3.80;99.90
52471;DHT22;38382;53.160;7.026;2022-12-07T01:15:33;3.70;99.90
52471;DHT22;38382;53.160;7.026;2022-12-07T01:17:58;3.70;99.90
52471;DHT22;38382;53.160;7.026;2022-12-07T01:20:24;3.70;99.90
52471;DHT22;38382;53.160;7.026;2022-12-07T01:22:50;3.60;99.90
52471;DHT22;38382;53.160;7.026;2022-12-07T01:25:15;3.70;99.90
52471;DHT22;38382;53.160;7.026;2022-12-07T01:27:41;3.70;99.90
52471;DHT22;38382;53.160;7.026;2022-12-07T01:30:08;3.70;99.90
52471;DHT22;38382;53.160;7.026;2022-12-07T01:32:34;3.70;99.90
52471;DHT22;38382;53.160;7.026;2022-12-07T01:34:59;3.60;99.90
52471;DHT22;38382;53.160;7.026;2022-12-07T01:37:25;3.70;99.90
52471;DHT22;38382;53.160;7.026;2022-12-07T01:39:51;3.70;99.90
52471;DHT22;38382;53.160;7.026;2022-12-07T01:42:18;4.60;99.90
52471;DHT22;38382;53.160;7.026;2022-12-07T01:47:55;3.80;99.90
52471;DHT22;38382;53.160;7.026;2022-12-07T01:50:25;3.80;99.90
52471;DHT22;38382;53.160;7.026;2022-12-07T01:52:54;3.80;99.90
52471;DHT22;38382;53.160;7.026;2022-12-07T01:55:22;3.90;99.90
52471;DHT22;38382;53.160;7.026;2022-12-07T01:57:50;3.70;99.90
52471;DHT22;38382;53.160;7.026;2022-12-07T02:00:17;3.70;99.90
52471;DHT22;38382;53.160;7.026;2022-12-07T02:03:47;3.70;99.90
52471;DHT22;38382;53.160;7.026;2022-12-07T02:05:42;3.70;99.90
52471;DHT22;38382;53.160;7.026;2022-12-07T02:08:10;3.70;99.90
52471;DHT22;38382;53.160;7.026;2022-12-07T02:10:36;3.70;99.90
52471;DHT22;38382;53.160;7.026;2022-12-07T02:21:05;3.90;99.90
52471;DHT22;38382;53.160;7.026;2022-12-07T02:29:22;3.90;99.90
52471;DHT22;38382;53.160;7.026;2022-12-07T02:32:08;4.20;99.90
52471;DHT22;38382;53.160;7.026;2022-12-07T02:40:01;3.60;99.90
52471;DHT22;38382;53.160;7.026;2022-12-07T02:42:38;4.30;99.90
52471;DHT22;38382;53.160;7.026;2022-12-07T02:45:10;4.40;99.90
52471;DHT22;38382;53.160;7.026;2022-12-07T02:47:37;3.70;99.90
52471;DHT22;38382;53.160;7.026;2022-12-07T02:50:06;3.40;99.90
52471;DHT22;38382;53.160;7.026;2022-12-07T02:52:32;3.30;99.90
52471;DHT22;38382;53.160;7.026;2022-12-07T02:54:58;3.50;99.90
52471;DHT22;38382;53.160;7.026;2022-12-07T03:00:18;3.20;99.90
52471;DHT22;38382;53.160;7.026;2022-12-07T03:08:08;3.10;99.90
52471;DHT22;38382;53.160;7.026;2022-12-07T03:13:39;4.30;99.90
52471;DHT22;38382;53.160;7.026;2022-12-07T03:16:27;3.20;99.90
52471;DHT22;38382;53.160;7.026;2022-12-07T03:18:59;3.20;99.90
52471;DHT22;38382;53.160;7.026;2022-12-07T03:21:41;4.30;99.90
52471;DHT22;38382;53.160;7.026;2022-12-07T03:24:29;3.30;99.90
52471;DHT22;38382;53.160;7.026;2022-12-07T03:27:06;4.60;99.90
52471;DHT22;38382;53.160;7.026;2022-12-07T03:29:50;3.40;99.90
52471;DHT22;38382;53.160;7.026;2022-12-07T03:34:53;3.30;99.90
52471;DHT22;38382;53.160;7.026;2022-12-07T03:37:28;3.30;99.90
52471;DHT22;38382;53.160;7.026;2022-12-07T03:42:40;3.30;99.90
52471;DHT22;38382;53.160;7.026;2022-12-07T03:45:07;3.20;99.90
52471;DHT22;38382;53.160;7.026;2022-12-07T03:47:55;3.20;99.90
52471;DHT22;38382;53.160;7.026;2022-12-07T03:50:29;3.20;99.90
52471;DHT22;38382;53.160;7.026;2022-12-07T03:53:18;3.10;99.90
52471;DHT22;38382;53.160;7.026;2022-12-07T03:55:47;3.10;99.90
52471;DHT22;38382;53.160;7.026;2022-12-07T03:58:19;3.10;99.90
52471;DHT22;38382;53.160;7.026;2022-12-07T04:00:46;3.20;99.90
52471;DHT22;38382;53.160;7.026;2022-12-07T04:03:12;3.00;99.90
52471;DHT22;38382;53.160;7.026;2022-12-07T04:05:39;3.00;99.90
52471;DHT22;38382;53.160;7.026;2022-12-07T04:08:05;3.10;99.90
52471;DHT22;38382;53.160;7.026;2022-12-07T04:10:30;3.10;99.90
52471;DHT22;38382;53.160;7.026;2022-12-07T04:12:56;3.10;99.90
52471;DHT22;38382;53.160;7.026;2022-12-07T04:15:22;3.60;99.90
52471;DHT22;38382;53.160;7.026;2022-12-07T04:17:48;3.10;99.90
52471;DHT22;38382;53.160;7.026;2022-12-07T04:20:14;3.10;99.90
52471;DHT22;38382;53.160;7.026;2022-12-07T04:22:39;3.10;99.90
52471;DHT22;38382;53.160;7.026;2022-12-07T04:25:06;3.00;99.90
52471;DHT22;38382;53.160;7.026;2022-12-07T04:27:31;3.00;99.90
52471;DHT22;38382;53.160;7.026;2022-12-07T04:29:57;3.00;99.90
52471;DHT22;38382;53.160;7.026;2022-12-07T04:32:23;4.30;99.90
52471;DHT22;38382;53.160;7.026;2022-12-07T04:34:49;2.90;99.90
52471;DHT22;38382;53.160;7.026;2022-12-07T04:37:15;3.00;99.90
52471;DHT22;38382;53.160;7.026;2022-12-07T04:39:41;3.50;99.90
52471;DHT22;38382;53.160;7.026;2022-12-07T04:42:09;3.00;99.90
52471;DHT22;38382;53.160;7.026;2022-12-07T04:44:34;3.40;99.90
52471;DHT22;38382;53.160;7.026;2022-12-07T04:47:00;3.50;99.90
52471;DHT22;38382;53.160;7.026;2022-12-07T04:49:26;2.80;99.90
52471;DHT22;38382;53.160;7.026;2022-12-07T04:51:52;2.90;99.90
52471;DHT22;38382;53.160;7.026;2022-12-07T04:54:18;3.30;99.90
52471;DHT22;38382;53.160;7.026;2022-12-07T04:56:44;2.90;99.90
52471;DHT22;38382;53.160;7.026;2022-12-07T04:59:11;3.80;99.90
52471;DHT22;38382;53.160;7.026;2022-12-07T05:01:37;3.00;99.90
52471;DHT22;38382;53.160;7.026;2022-12-07T05:04:03;3.00;99.90
52471;DHT22;38382;53.160;7.026;2022-12-07T05:06:29;3.00;99.90
52471;DHT22;38382;53.160;7.026;2022-12-07T05:08:55;3.10;99.90
52471;DHT22;38382;53.160;7.026;2022-12-07T05:11:20;3.10;99.90
52471;DHT22;38382;53.160;7.026;2022-12-07T05:14:08;3.10;99.90
52471;DHT22;38382;53.160;7.026;2022-12-07T05:16:34;3.00;99.90
52471;DHT22;38382;53.160;7.026;2022-12-07T05:19:00;3.10;99.90
52471;DHT22;38382;53.160;7.026;2022-12-07T05:21:26;3.10;99.90
52471;DHT22;38382;53.160;7.026;2022-12-07T05:23:52;3.10;99.90
52471;DHT22;38382;53.160;7.026;2022-12-07T05:26:18;3.00;99.90
52471;DHT22;38382;53.160;7.026;2022-12-07T05:28:43;3.60;99.90
52471;DHT22;38382;53.160;7.026;2022-12-07T05:31:09;3.00;99.90
52471;DHT22;38382;53.160;7.026;2022-12-07T05:33:35;2.90;99.90
52471;DHT22;38382;53.160;7.026;2022-12-07T05:36:01;4.00;99.90
52471;DHT22;38382;53.160;7.026;2022-12-07T05:38:31;2.80;99.90
52471;DHT22;38382;53.160;7.026;2022-12-07T05:41:06;2.80;99.90
52471;DHT22;38382;53.160;7.026;2022-12-07T05:43:32;2.80;99.90
52471;DHT22;38382;53.160;7.026;2022-12-07T05:45:59;3.70;99.90
52471;DHT22;38382;53.160;7.026;2022-12-07T05:48:25;2.70;99.90
52471;DHT22;38382;53.160;7.026;2022-12-07T05:50:51;2.70;99.90
52471;DHT22;38382;53.160;7.026;2022-12-07T05:53:17;3.10;99.90
52471;DHT22;38382;53.160;7.026;2022-12-07T05:55:44;2.70;99.90
52471;DHT22;38382;53.160;7.026;2022-12-07T05:58:10;2.70;99.90
52471;DHT22;38382;53.160;7.026;2022-12-07T06:00:55;2.70;99.90
52471;DHT22;38382;53.160;7.026;2022-12-07T06:03:21;3.10;99.90
52471;DHT22;38382;53.160;7.026;2022-12-07T06:05:46;2.70;99.90
52471;DHT22;38382;53.160;7.026;2022-12-07T06:08:12;3.20;99.90
52471;DHT22;38382;53.160;7.026;2022-12-07T06:10:40;3.60;99.90
52471;DHT22;38382;53.160;7.026;2022-12-07T06:13:07;2.80;99.90
52471;DHT22;38382;53.160;7.026;2022-12-07T06:15:36;2.80;99.90
52471;DHT22;38382;53.160;7.026;2022-12-07T06:18:01;3.00;99.90
52471;DHT22;38382;53.160;7.026;2022-12-07T06:20:27;2.80;99.90
52471;DHT22;38382;53.160;7.026;2022-12-07T06:22:53;3.30;99.90
52471;DHT22;38382;53.160;7.026;2022-12-07T06:25:18;2.80;99.90
52471;DHT22;38382;53.160;7.026;2022-12-07T06:27:44;3.50;99.90
52471;DHT22;38382;53.160;7.026;2022-12-07T06:30:10;3.20;99.90
52471;DHT22;38382;53.160;7.026;2022-12-07T06:32:36;2.60;99.90
52471;DHT22;38382;53.160;7.026;2022-12-07T06:35:03;2.50;99.90
52471;DHT22;38382;53.160;7.026;2022-12-07T06:37:29;2.50;99.90
52471;DHT22;38382;53.160;7.026;2022-12-07T06:39:54;2.50;99.90
52471;DHT22;38382;53.160;7.026;2022-12-07T06:42:20;2.60;99.90
52471;DHT22;38382;53.160;7.026;2022-12-07T06:44:46;2.50;99.90
52471;DHT22;38382;53.160;7.026;2022-12-07T06:47:12;3.10;99.90
52471;DHT22;38382;53.160;7.026;2022-12-07T06:49:38;2.70;99.90
52471;DHT22;38382;53.160;7.026;2022-12-07T06:52:03;3.90;99.90
52471;DHT22;38382;53.160;7.026;2022-12-07T06:54:31;2.60;99.90
52471;DHT22;38382;53.160;7.026;2022-12-07T06:56:56;2.70;99.90
52471;DHT22;38382;53.160;7.026;2022-12-07T06:59:22;2.70;99.90
52471;DHT22;38382;53.160;7.026;2022-12-07T07:01:48;2.70;99.90
52471;DHT22;38382;53.160;7.026;2022-12-07T07:04:14;3.90;99.90
52471;DHT22;38382;53.160;7.026;2022-12-07T07:06:39;3.80;99.90
52471;DHT22;38382;53.160;7.026;2022-12-07T07:09:05;2.50;99.90
52471;DHT22;38382;53.160;7.026;2022-12-07T07:11:31;2.50;99.90
52471;DHT22;38382;53.160;7.026;2022-12-07T07:13:56;2.50;99.90
52471;DHT22;38382;53.160;7.026;2022-12-07T07:16:24;2.70;99.90
52471;DHT22;38382;53.160;7.026;2022-12-07T07:18:50;2.40;99.90
52471;DHT22;38382;53.160;7.026;2022-12-07T07:21:16;2.40;99.90
52471;DHT22;38382;53.160;7.026;2022-12-07T07:23:41;2.60;99.90
52471;DHT22;38382;53.160;7.026;2022-12-07T07:26:07;3.30;99.90
52471;DHT22;38382;53.160;7.026;2022-12-07T07:28:33;2.20;99.90
52471;DHT22;38382;53.160;7.026;2022-12-07T07:30:58;3.30;99.90
52471;DHT22;38382;53.160;7.026;2022-12-07T07:33:24;2.20;99.90
52471;DHT22;38382;53.160;7.026;2022-12-07T07:35:50;2.70;99.90
52471;DHT22;38382;53.160;7.026;2022-12-07T07:38:16;2.10;99.90
52471;DHT22;38382;53.160;7.026;2022-12-07T07:40:41;2.10;99.90
52471;DHT22;38382;53.160;7.026;2022-12-07T07:43:07;2.10;99.90
52471;DHT22;38382;53.160;7.026;2022-12-07T07:45:33;2.10;99.90
52471;DHT22;38382;53.160;7.026;2022-12-07T07:47:58;2.40;99.90
52471;DHT22;38382;53.160;7.026;2022-12-07T07:50:24;2.60;99.90
52471;DHT22;38382;53.160;7.026;2022-12-07T07:52:51;2.10;99.90
52471;DHT22;38382;53.160;7.026;2022-12-07T07:55:17;3.30;99.90
52471;DHT22;38382;53.160;7.026;2022-12-07T07:57:43;2.30;99.90
52471;DHT22;38382;53.160;7.026;2022-12-07T08:00:11;2.40;99.90
52471;DHT22;38382;53.160;7.026;2022-12-07T08:02:37;2.50;99.90
52471;DHT22;38382;53.160;7.026;2022-12-07T08:05:03;2.50;99.90
52471;DHT22;38382;53.160;7.026;2022-12-07T08:07:29;2.60;99.90
52471;DHT22;38382;53.160;7.026;2022-12-07T08:09:54;2.60;99.90
52471;DHT22;38382;53.160;7.026;2022-12-07T08:12:20;3.70;99.90
52471;DHT22;38382;53.160;7.026;2022-12-07T08:14:46;2.80;99.90
52471;DHT22;38382;53.160;7.026;2022-12-07T08:17:12;2.70;99.90
52471;DHT22;38382;53.160;7.026;2022-12-07T08:19:38;2.70;99.90
52471;DHT22;38382;53.160;7.026;2022-12-07T08:22:03;3.00;99.90
52471;DHT22;38382;53.160;7.026;2022-12-07T08:24:29;2.90;99.90
52471;DHT22;38382;53.160;7.026;2022-12-07T08:26:55;2.90;99.90
52471;DHT22;38382;53.160;7.026;2022-12-07T08:29:21;2.90;99.90
52471;DHT22;38382;53.160;7.026;2022-12-07T08:31:46;2.90;99.90
52471;DHT22;38382;53.160;7.026;2022-12-07T08:34:13;3.20;99.90
52471;DHT22;38382;53.160;7.026;2022-12-07T08:36:39;3.00;99.90
52471;DHT22;38382;53.160;7.026;2022-12-07T08:39:05;3.00;99.90
52471;DHT22;38382;53.160;7.026;2022-12-07T08:41:32;3.10;99.90
52471;DHT22;38382;53.160;7.026;2022-12-07T08:43:57;3.10;99.90
52471;DHT22;38382;53.160;7.026;2022-12-07T08:46:43;3.10;99.90
52471;DHT22;38382;53.160;7.026;2022-12-07T08:49:15;3.20;99.90
52471;DHT22;38382;53.160;7.026;2022-12-07T08:51:42;3.20;99.90
52471;DHT22;38382;53.160;7.026;2022-12-07T08:54:11;4.70;99.90
52471;DHT22;38382;53.160;7.026;2022-12-07T08:56:38;3.50;99.90
52471;DHT22;38382;53.160;7.026;2022-12-07T08:59:05;4.00;99.90
52471;DHT22;38382;53.160;7.026;2022-12-07T09:01:31;3.70;99.90
52471;DHT22;38382;53.160;7.026;2022-12-07T09:03:57;3.50;99.90
52471;DHT22;38382;53.160;7.026;2022-12-07T09:06:22;3.50;99.90
52471;DHT22;38382;53.160;7.026;2022-12-07T09:08:51;3.50;99.90
52471;DHT22;38382;53.160;7.026;2022-12-07T09:11:18;3.60;99.90
52471;DHT22;38382;53.160;7.026;2022-12-07T09:13:44;4.60;99.90
52471;DHT22;38382;53.160;7.026;2022-12-07T09:16:09;3.60;99.90
52471;DHT22;38382;53.160;7.026;2022-12-07T09:18:35;3.60;99.90
52471;DHT22;38382;53.160;7.026;2022-12-07T09:21:01;4.40;99.90
52471;DHT22;38382;53.160;7.026;2022-12-07T09:23:26;3.60;99.90
52471;DHT22;38382;53.160;7.026;2022-12-07T09:25:52;3.60;99.90
52471;DHT22;38382;53.160;7.026;2022-12-07T09:28:18;4.60;99.90
52471;DHT22;38382;53.160;7.026;2022-12-07T09:30:47;4.50;99.90
52471;DHT22;38382;53.160;7.026;2022-12-07T09:33:13;5.00;99.90
52471;DHT22;38382;53.160;7.026;2022-12-07T09:35:48;4.60;99.90
52471;DHT22;38382;53.160;7.026;2022-12-07T09:38:15;3.90;99.90
52471;DHT22;38382;53.160;7.026;2022-12-07T09:40:41;5.10;99.90
52471;DHT22;38382;53.160;7.026;2022-12-07T09:43:17;4.30;99.90
52471;DHT22;38382;53.160;7.026;2022-12-07T09:45:44;4.20;99.90
52471;DHT22;38382;53.160;7.026;2022-12-07T09:48:30;4.30;99.90
52471;DHT22;38382;53.160;7.026;2022-12-07T09:50:59;4.40;99.90
52471;DHT22;38382;53.160;7.026;2022-12-07T09:53:28;4.60;99.90
52471;DHT22;38382;53.160;7.026;2022-12-07T09:55:55;4.80;99.90
52471;DHT22;38382;53.160;7.026;2022-12-07T09:58:26;4.90;99.90
52471;DHT22;38382;53.160;7.026;2022-12-07T10:00:58;5.70;99.90
52471;DHT22;38382;53.160;7.026;2022-12-07T10:03:27;5.10;99.90
52471;DHT22;38382;53.160;7.026;2022-12-07T10:05:54;5.20;99.90
52471;DHT22;38382;53.160;7.026;2022-12-07T10:08:20;5.60;99.90
52471;DHT22;38382;53.160;7.026;2022-12-07T10:10:50;5.20;99.90
52471;DHT22;38382;53.160;7.026;2022-12-07T10:13:22;5.40;99.90
52471;DHT22;38382;53.160;7.026;2022-12-07T10:15:52;5.20;99.90
52471;DHT22;38382;53.160;7.026;2022-12-07T10:18:41;5.10;99.90
52471;DHT22;38382;53.160;7.026;2022-12-07T10:21:18;5.20;99.90
52471;DHT22;38382;53.160;7.026;2022-12-07T10:26:53;5.30;99.90
52471;DHT22;38382;53.160;7.026;2022-12-07T10:29:37;5.30;99.90
52471;DHT22;38382;53.160;7.026;2022-12-07T10:34:40;5.50;99.90
52471;DHT22;38382;53.160;7.026;2022-12-07T10:37:27;5.50;99.90
52471;DHT22;38382;53.160;7.026;2022-12-07T10:39:55;5.70;99.90
52471;DHT22;38382;53.160;7.026;2022-12-07T10:42:32;5.90;99.90
52471;DHT22;38382;53.160;7.026;2022-12-07T10:45:17;5.90;99.90
52471;DHT22;38382;53.160;7.026;2022-12-07T10:47:53;5.90;99.90
52471;DHT22;38382;53.160;7.026;2022-12-07T10:50:29;5.90;99.90
52471;DHT22;38382;53.160;7.026;2022-12-07T11:01:23;5.80;99.90
52471;DHT22;38382;53.160;7.026;2022-12-07T11:07:18;5.70;99.90
52471;DHT22;38382;53.160;7.026;2022-12-07T11:09:57;5.70;99.90
52471;DHT22;38382;53.160;7.026;2022-12-07T11:12:46;5.80;99.90
52471;DHT22;38382;53.160;7.026;2022-12-07T11:18:07;6.00;99.90
52471;DHT22;38382;53.160;7.026;2022-12-07T11:29:49;6.50;99.90
52471;DHT22;38382;53.160;7.026;2022-12-07T11:37:38;6.80;99.90
52471;DHT22;38382;53.160;7.026;2022-12-07T11:40:20;6.70;99.90
52471;DHT22;38382;53.160;7.026;2022-12-07T11:45:37;6.60;99.90
52471;DHT22;38382;53.160;7.026;2022-12-07T11:50:43;6.70;99.90
52471;DHT22;38382;53.160;7.026;2022-12-07T11:53:22;6.70;99.90
52471;DHT22;38382;53.160;7.026;2022-12-07T11:58:38;7.30;99.90
52471;DHT22;38382;53.160;7.026;2022-12-07T12:06:42;7.40;99.90
52471;DHT22;38382;53.160;7.026;2022-12-07T12:09:29;7.00;99.90
52471;DHT22;38382;53.160;7.026;2022-12-07T12:15:20;6.80;99.90
52471;DHT22;38382;53.160;7.026;2022-12-07T12:23:43;6.40;99.90
52471;DHT22;38382;53.160;7.026;2022-12-07T12:26:18;6.40;99.90
52471;DHT22;38382;53.160;7.026;2022-12-07T12:29:17;6.40;99.90
52471;DHT22;38382;53.160;7.026;2022-12-07T12:31:48;6.20;99.90
52471;DHT22;38382;53.160;7.026;2022-12-07T12:34:40;6.10;99.90
52471;DHT22;38382;53.160;7.026;2022-12-07T12:42:53;5.90;99.90
52471;DHT22;38382;53.160;7.026;2022-12-07T12:45:30;5.80;99.90
52471;DHT22;38382;53.160;7.026;2022-12-07T12:48:01;6.10;99.90
52471;DHT22;38382;53.160;7.026;2022-12-07T12:50:37;5.70;99.90
52471;DHT22;38382;53.160;7.026;2022-12-07T12:58:34;6.70;99.90
52471;DHT22;38382;53.160;7.026;2022-12-07T13:01:38;6.70;99.90
52471;DHT22;38382;53.160;7.026;2022-12-07T13:04:18;6.50;99.90
52471;DHT22;38382;53.160;7.026;2022-12-07T13:06:47;6.30;99.90
52471;DHT22;38382;53.160;7.026;2022-12-07T13:09:25;6.10;99.90
52471;DHT22;38382;53.160;7.026;2022-12-07T13:12:05;5.90;99.90
52471;DHT22;38382;53.160;7.026;2022-12-07T13:14:57;5.70;99.90
52471;DHT22;38382;53.160;7.026;2022-12-07T13:20:00;5.60;99.90
52471;DHT22;38382;53.160;7.026;2022-12-07T13:25:07;5.40;99.90
52471;DHT22;38382;53.160;7.026;2022-12-07T13:27:37;5.30;99.90
52471;DHT22;38382;53.160;7.026;2022-12-07T13:30:15;5.20;99.90
52471;DHT22;38382;53.160;7.026;2022-12-07T13:32:41;5.20;99.90
52471;DHT22;38382;53.160;7.026;2022-12-07T13:35:30;5.20;99.90
52471;DHT22;38382;53.160;7.026;2022-12-07T13:37:56;5.20;99.90
52471;DHT22;38382;53.160;7.026;2022-12-07T13:40:23;5.10;99.90
52471;DHT22;38382;53.160;7.026;2022-12-07T13:42:58;5.10;99.90
52471;DHT22;38382;53.160;7.026;2022-12-07T13:45:29;5.00;99.90
52471;DHT22;38382;53.160;7.026;2022-12-07T13:48:27;5.00;99.90
52471;DHT22;38382;53.160;7.026;2022-12-07T13:50:56;5.90;99.90
52471;DHT22;38382;53.160;7.026;2022-12-07T13:53:23;5.00;99.90
52471;DHT22;38382;53.160;7.026;2022-12-07T13:55:49;5.30;99.90
52471;DHT22;38382;53.160;7.026;2022-12-07T13:58:15;5.00;99.90
52471;DHT22;38382;53.160;7.026;2022-12-07T14:00:42;5.00;99.90
52471;DHT22;38382;53.160;7.026;2022-12-07T14:05:38;5.10;99.90
52471;DHT22;38382;53.160;7.026;2022-12-07T14:08:20;4.90;99.90
52471;DHT22;38382;53.160;7.026;2022-12-07T14:15:50;4.90;99.90
52471;DHT22;38382;53.160;7.026;2022-12-07T14:18:49;4.90;99.90
52471;DHT22;38382;53.160;7.026;2022-12-07T14:21:21;5.00;99.90
52471;DHT22;38382;53.160;7.026;2022-12-07T14:24:10;5.10;99.90
52471;DHT22;38382;53.160;7.026;2022-12-07T14:26:38;4.70;99.90
52471;DHT22;38382;53.160;7.026;2022-12-07T14:31:51;4.60;99.90
52471;DHT22;38382;53.160;7.026;2022-12-07T14:34:20;5.20;99.90
52471;DHT22;38382;53.160;7.026;2022-12-07T14:36:46;4.50;99.90
52471;DHT22;38382;53.160;7.026;2022-12-07T14:39:11;4.40;99.90
52471;DHT22;38382;53.160;7.026;2022-12-07T14:41:37;4.30;99.90
52471;DHT22;38382;53.160;7.026;2022-12-07T14:44:20;4.20;99.90
52471;DHT22;38382;53.160;7.026;2022-12-07T14:46:51;4.20;99.90
52471;DHT22;38382;53.160;7.026;2022-12-07T14:49:18;4.10;99.90
52471;DHT22;38382;53.160;7.026;2022-12-07T14:51:45;4.00;99.90
52471;DHT22;38382;53.160;7.026;2022-12-07T14:54:19;4.00;99.90
52471;DHT22;38382;53.160;7.026;2022-12-07T14:56:46;4.60;99.90
52471;DHT22;38382;53.160;7.026;2022-12-07T14:59:16;3.90;99.90
52471;DHT22;38382;53.160;7.026;2022-12-07T15:01:42;3.90;99.90
52471;DHT22;38382;53.160;7.026;2022-12-07T15:04:08;3.80;99.90
52471;DHT22;38382;53.160;7.026;2022-12-07T15:06:34;3.70;99.90
52471;DHT22;38382;53.160;7.026;2022-12-07T15:09:00;3.70;99.90
52471;DHT22;38382;53.160;7.026;2022-12-07T15:11:26;4.00;99.90
52471;DHT22;38382;53.160;7.026;2022-12-07T15:13:52;3.60;99.90
52471;DHT22;38382;53.160;7.026;2022-12-07T15:16:33;3.60;99.90
52471;DHT22;38382;53.160;7.026;2022-12-07T15:18:59;3.50;99.90
52471;DHT22;38382;53.160;7.026;2022-12-07T15:21:25;4.00;99.90
52471;DHT22;38382;53.160;7.026;2022-12-07T15:23:51;3.70;99.90
52471;DHT22;38382;53.160;7.026;2022-12-07T15:26:17;3.30;99.90
52471;DHT22;38382;53.160;7.026;2022-12-07T15:28:43;3.30;99.90
52471;DHT22;38382;53.160;7.026;2022-12-07T15:31:16;3.90;99.90
52471;DHT22;38382;53.160;7.026;2022-12-07T15:33:43;3.40;99.90
52471;DHT22;38382;53.160;7.026;2022-12-07T15:36:23;3.30;99.90
52471;DHT22;38382;53.160;7.026;2022-12-07T15:38:49;3.20;99.90
52471;DHT22;38382;53.160;7.026;2022-12-07T15:41:15;3.80;99.90
52471;DHT22;38382;53.160;7.026;2022-12-07T15:43:41;3.20;99.90
52471;DHT22;38382;53.160;7.026;2022-12-07T15:46:33;3.20;99.90
52471;DHT22;38382;53.160;7.026;2022-12-07T15:48:59;4.30;99.90
52471;DHT22;38382;53.160;7.026;2022-12-07T15:51:26;3.90;99.90
52471;DHT22;38382;53.160;7.026;2022-12-07T15:53:52;3.30;99.90
52471;DHT22;38382;53.160;7.026;2022-12-07T15:56:18;3.30;99.90
52471;DHT22;38382;53.160;7.026;2022-12-07T15:58:44;3.30;99.90
52471;DHT22;38382;53.160;7.026;2022-12-07T16:01:16;4.80;99.90
52471;DHT22;38382;53.160;7.026;2022-12-07T16:03:43;3.30;99.90
52471;DHT22;38382;53.160;7.026;2022-12-07T16:06:08;3.30;99.90
52471;DHT22;38382;53.160;7.026;2022-12-07T16:08:35;3.40;99.90
52471;DHT22;38382;53.160;7.026;2022-12-07T16:11:05;4.40;99.90
52471;DHT22;38382;53.160;7.026;2022-12-07T16:13:32;3.30;99.90
52471;DHT22;38382;53.160;7.026;2022-12-07T16:15:57;3.60;99.90
52471;DHT22;38382;53.160;7.026;2022-12-07T16:18:23;3.30;99.90
52471;DHT22;38382;53.160;7.026;2022-12-07T16:20:49;3.30;99.90
52471;DHT22;38382;53.160;7.026;2022-12-07T16:23:15;3.30;99.90
52471;DHT22;38382;53.160;7.026;2022-12-07T16:25:41;3.60;99.90
52471;DHT22;38382;53.160;7.026;2022-12-07T16:28:07;3.90;99.90
52471;DHT22;38382;53.160;7.026;2022-12-07T16:30:33;3.30;99.90
52471;DHT22;38382;53.160;7.026;2022-12-07T16:32:59;3.20;99.90
52471;DHT22;38382;53.160;7.026;2022-12-07T16:35:25;3.20;99.90
52471;DHT22;38382;53.160;7.026;2022-12-07T16:37:50;3.30;99.90
52471;DHT22;38382;53.160;7.026;2022-12-07T16:40:16;3.30;99.90
52471;DHT22;38382;53.160;7.026;2022-12-07T16:42:42;3.30;99.90
52471;DHT22;38382;53.160;7.026;2022-12-07T16:45:08;3.30;99.90
52471;DHT22;38382;53.160;7.026;2022-12-07T16:47:37;3.30;99.90
52471;DHT22;38382;53.160;7.026;2022-12-07T16:50:03;3.60;99.90
52471;DHT22;38382;53.160;7.026;2022-12-07T16:52:29;3.30;99.90
52471;DHT22;38382;53.160;7.026;2022-12-07T16:54:55;3.30;99.90
52471;DHT22;38382;53.160;7.026;2022-12-07T16:57:21;3.30;99.90
52471;DHT22;38382;53.160;7.026;2022-12-07T16:59:46;3.20;99.90
52471;DHT22;38382;53.160;7.026;2022-12-07T17:02:12;3.30;99.90
52471;DHT22;38382;53.160;7.026;2022-12-07T17:04:38;4.20;99.90
52471;DHT22;38382;53.160;7.026;2022-12-07T17:07:05;3.20;99.90
52471;DHT22;38382;53.160;7.026;2022-12-07T17:09:31;3.20;99.90
52471;DHT22;38382;53.160;7.026;2022-12-07T17:11:57;3.20;99.90
52471;DHT22;38382;53.160;7.026;2022-12-07T17:14:23;4.20;99.90
52471;DHT22;38382;53.160;7.026;2022-12-07T17:17:07;3.20;99.90
52471;DHT22;38382;53.160;7.026;2022-12-07T17:19:33;4.00;99.90
52471;DHT22;38382;53.160;7.026;2022-12-07T17:21:59;3.10;99.90
52471;DHT22;38382;53.160;7.026;2022-12-07T17:24:25;3.20;99.90
52471;DHT22;38382;53.160;7.026;2022-12-07T17:26:51;3.10;99.90
52471;DHT22;38382;53.160;7.026;2022-12-07T17:29:17;3.40;99.90
52471;DHT22;38382;53.160;7.026;2022-12-07T17:31:44;3.60;99.90
52471;DHT22;38382;53.160;7.026;2022-12-07T17:34:11;3.10;99.90
52471;DHT22;38382;53.160;7.026;2022-12-07T17:36:37;3.10;99.90
52471;DHT22;38382;53.160;7.026;2022-12-07T17:39:11;3.90;99.90
52471;DHT22;38382;53.160;7.026;2022-12-07T17:41:38;3.60;99.90
52471;DHT22;38382;53.160;7.026;2022-12-07T17:44:23;3.80;99.90
52471;DHT22;38382;53.160;7.026;2022-12-07T17:46:51;3.00;99.90
52471;DHT22;38382;53.160;7.026;2022-12-07T17:49:22;3.00;99.90
52471;DHT22;38382;53.160;7.026;2022-12-07T17:51:48;4.00;99.90
52471;DHT22;38382;53.160;7.026;2022-12-07T17:54:32;3.20;99.90
52471;DHT22;38382;53.160;7.026;2022-12-07T17:56:58;3.60;99.90
52471;DHT22;38382;53.160;7.026;2022-12-07T17:59:24;2.90;99.90
52471;DHT22;38382;53.160;7.026;2022-12-07T18:01:50;2.90;99.90
52471;DHT22;38382;53.160;7.026;2022-12-07T18:04:16;3.00;99.90